createdAt,value
2023-03-19T00:00:29.603Z,8.23
2023-03-19T00:02:56.839Z,9.73
2023-03-19T00:05:23.561Z,9.97
2023-03-19T00:07:50.658Z,8.60
2023-03-19T00:10:17.705Z,8.90
2023-03-19T00:12:44.777Z,9.37
2023-03-19T00:15:14.340Z,8.37
2023-03-19T00:17:42.832Z,9.00
2023-03-19T00:20:11.675Z,7.17
2023-03-19T00:22:39.653Z,8.87
2023-03-19T00:25:08.589Z,7.67
2023-03-19T00:27:37.728Z,9.87
2023-03-19T00:30:06.238Z,9.10
2023-03-19T00:32:33.946Z,9.60
2023-03-19T00:35:01.178Z,8.43
2023-03-19T00:37:28.480Z,9.17
2023-03-19T00:39:55.974Z,10.00
2023-03-19T00:42:22.793Z,9.07
2023-03-19T00:44:49.827Z,9.00
2023-03-19T00:47:16.782Z,9.50
2023-03-19T00:49:43.908Z,11.57
2023-03-19T00:52:11.178Z,14.10
2023-03-19T00:54:38.459Z,12.00
2023-03-19T00:57:05.697Z,9.53
2023-03-19T00:59:32.512Z,9.30
2023-03-19T01:01:59.829Z,9.97
2023-03-19T01:04:26.658Z,9.27
2023-03-19T01:06:53.323Z,9.47
2023-03-19T01:09:20.535Z,7.83
2023-03-19T01:11:47.584Z,8.77
2023-03-19T01:14:16.258Z,8.03
2023-03-19T01:16:43.324Z,8.03
2023-03-19T01:19:10.588Z,8.37
2023-03-19T01:21:37.212Z,7.83
2023-03-19T01:24:04.315Z,10.90
2023-03-19T01:26:31.265Z,12.40
2023-03-19T01:28:58.504Z,10.73
2023-03-19T01:31:25.643Z,12.73
2023-03-19T01:33:52.692Z,10.83
2023-03-19T01:36:19.806Z,11.37
2023-03-19T01:38:46.628Z,11.03
2023-03-19T01:41:13.888Z,9.53
2023-03-19T01:43:41.258Z,11.07
2023-03-19T01:46:22.437Z,11.90
2023-03-19T01:48:57.788Z,9.53
2023-03-19T01:51:28.545Z,9.83
2023-03-19T01:54:00.444Z,8.70
2023-03-19T01:56:36.372Z,7.20
2023-03-19T01:59:09.989Z,6.67
2023-03-19T02:01:43.461Z,6.63
2023-03-19T02:04:10.794Z,6.50
2023-03-19T02:06:39.943Z,7.77
2023-03-19T02:09:07.961Z,8.80
2023-03-19T02:11:35.350Z,8.57
2023-03-19T02:14:02.526Z,8.00
2023-03-19T02:16:29.836Z,9.10
2023-03-19T02:18:57.148Z,8.77
2023-03-19T02:21:24.282Z,10.07
2023-03-19T02:24:03.163Z,13.83
2023-03-19T02:26:30.741Z,14.57
2023-03-19T02:28:57.523Z,11.07
2023-03-19T02:31:25.498Z,10.47
2023-03-19T02:34:10.682Z,9.33
2023-03-19T02:36:44.889Z,9.03
2023-03-19T02:39:19.182Z,8.50
2023-03-19T02:41:47.517Z,9.33
2023-03-19T02:44:14.653Z,9.17
2023-03-19T02:46:42.708Z,7.23
2023-03-19T02:49:09.556Z,8.07
2023-03-19T02:51:53.142Z,7.90
2023-03-19T02:54:19.844Z,7.77
2023-03-19T02:56:46.816Z,7.90
2023-03-19T02:59:14.146Z,7.20
2023-03-19T03:01:41.181Z,6.93
2023-03-19T03:04:09.128Z,7.50
2023-03-19T03:06:35.810Z,7.63
2023-03-19T03:09:02.942Z,7.40
2023-03-19T03:11:30.130Z,7.50
2023-03-19T03:13:58.140Z,7.00
2023-03-19T03:16:25.587Z,6.60
2023-03-19T03:18:52.783Z,7.17
2023-03-19T03:21:21.827Z,7.10
2023-03-19T03:23:48.874Z,7.57
2023-03-19T03:26:16.251Z,6.80
2023-03-19T03:28:43.476Z,7.47
2023-03-19T03:31:10.860Z,7.60
2023-03-19T03:33:37.617Z,7.80
2023-03-19T03:36:05.099Z,7.87
2023-03-19T03:38:33.636Z,7.80
2023-03-19T03:41:00.536Z,7.80
2023-03-19T03:43:27.859Z,7.07
2023-03-19T03:45:54.856Z,8.00
2023-03-19T03:48:22.367Z,6.87
2023-03-19T03:50:49.135Z,7.83
2023-03-19T03:53:16.426Z,6.83
2023-03-19T03:55:43.254Z,6.67
2023-03-19T03:58:10.616Z,6.20
2023-03-19T04:00:37.383Z,6.03
2023-03-19T04:03:06.797Z,6.70
2023-03-19T04:05:33.546Z,6.00
2023-03-19T04:08:00.388Z,5.83
2023-03-19T04:10:28.235Z,5.53
2023-03-19T04:12:55.371Z,5.60
2023-03-19T04:15:23.170Z,5.50
2023-03-19T04:17:50.848Z,5.37
2023-03-19T04:20:18.718Z,5.93
2023-03-19T04:22:46.253Z,6.00
2023-03-19T04:25:12.946Z,6.47
2023-03-19T04:27:39.639Z,6.90
2023-03-19T04:30:07.095Z,7.23
2023-03-19T04:32:35.996Z,8.00
2023-03-19T04:35:03.382Z,6.63
2023-03-19T04:37:30.354Z,7.00
2023-03-19T04:39:57.546Z,6.60
2023-03-19T04:42:25.311Z,6.23
2023-03-19T04:44:52.488Z,5.37
2023-03-19T04:47:19.766Z,5.20
2023-03-19T04:49:47.530Z,4.47
2023-03-19T04:52:14.692Z,4.63
2023-03-19T04:54:41.401Z,4.23
2023-03-19T04:57:08.647Z,4.00
2023-03-19T04:59:35.910Z,4.40
2023-03-19T05:02:03.088Z,4.80
2023-03-19T05:04:29.744Z,4.03
2023-03-19T05:06:57.439Z,4.63
2023-03-19T05:09:24.851Z,5.40
2023-03-19T05:11:52.130Z,6.40
2023-03-19T05:14:18.857Z,5.67
2023-03-19T05:16:46.007Z,5.93
2023-03-19T05:19:12.752Z,6.03
2023-03-19T05:21:41.294Z,5.73
2023-03-19T05:24:08.175Z,6.37
2023-03-19T05:26:34.857Z,6.00
2023-03-19T05:29:01.966Z,6.23
2023-03-19T05:31:29.102Z,6.00
2023-03-19T05:33:55.838Z,6.23
2023-03-19T05:36:24.091Z,6.20
2023-03-19T05:38:51.194Z,5.73
2023-03-19T05:41:17.949Z,8.43
2023-03-19T05:43:45.155Z,15.33
2023-03-19T05:46:12.206Z,6.77
2023-03-19T05:48:39.372Z,6.63
2023-03-19T05:51:06.519Z,6.30
2023-03-19T05:53:34.374Z,5.60
2023-03-19T05:56:01.154Z,5.13
2023-03-19T05:58:28.651Z,5.33
2023-03-19T06:00:59.817Z,5.60
2023-03-19T06:03:28.121Z,5.40
2023-03-19T06:05:54.799Z,5.57
2023-03-19T06:08:21.652Z,5.43
2023-03-19T06:10:48.815Z,5.87
2023-03-19T06:13:16.122Z,5.87
2023-03-19T06:15:42.857Z,6.27
2023-03-19T06:18:10.103Z,6.10
2023-03-19T06:20:37.347Z,6.47
2023-03-19T06:23:04.019Z,6.50
2023-03-19T06:25:31.292Z,6.73
2023-03-19T06:27:57.989Z,7.50
2023-03-19T06:30:25.413Z,7.10
2023-03-19T06:32:52.470Z,6.90
2023-03-19T06:35:19.278Z,6.60
2023-03-19T06:37:46.440Z,6.57
2023-03-19T06:40:13.672Z,6.90
2023-03-19T06:42:40.589Z,6.20
2023-03-19T06:45:09.088Z,5.53
2023-03-19T06:47:36.363Z,5.50
2023-03-19T06:50:03.426Z,4.40
2023-03-19T06:55:17.835Z,4.73
2023-03-19T06:57:49.069Z,4.83
2023-03-19T07:00:16.816Z,5.47
2023-03-19T07:02:43.790Z,5.20
2023-03-19T07:05:11.191Z,5.33
2023-03-19T07:07:38.341Z,5.70
2023-03-19T07:10:06.604Z,5.63
2023-03-19T07:12:33.755Z,5.80
2023-03-19T07:15:00.605Z,6.07
2023-03-19T07:17:27.729Z,5.37
2023-03-19T07:19:54.494Z,6.07
2023-03-19T07:22:22.169Z,6.77
2023-03-19T07:24:51.951Z,6.80
2023-03-19T07:27:19.399Z,6.03
2023-03-19T07:29:46.044Z,6.50
2023-03-19T07:32:13.003Z,6.37
2023-03-19T07:34:39.851Z,6.13
2023-03-19T07:37:06.894Z,7.00
2023-03-19T07:39:34.069Z,7.50
2023-03-19T07:42:01.094Z,9.83
2023-03-19T07:44:27.865Z,9.07
2023-03-19T07:46:54.877Z,8.97
2023-03-19T07:49:22.293Z,8.00
2023-03-19T07:51:49.392Z,8.90
2023-03-19T07:54:16.377Z,7.90
2023-03-19T07:56:43.269Z,7.93
2023-03-19T07:59:10.214Z,8.20
2023-03-19T08:01:37.188Z,9.43
2023-03-19T08:04:04.083Z,10.40
2023-03-19T08:06:30.842Z,9.40
2023-03-19T08:08:57.773Z,9.47
2023-03-19T08:11:24.770Z,8.43
2023-03-19T08:13:51.510Z,7.40
2023-03-19T08:16:18.209Z,7.07
2023-03-19T08:18:45.241Z,6.00
2023-03-19T08:21:12.221Z,6.83
2023-03-19T08:23:39.266Z,6.73
2023-03-19T08:26:06.312Z,7.10
2023-03-19T08:28:33.026Z,7.20
2023-03-19T08:31:07.416Z,7.90
2023-03-19T08:33:34.149Z,7.43
2023-03-19T08:36:09.553Z,6.37
2023-03-19T08:38:36.566Z,6.10
2023-03-19T08:41:04.333Z,7.07
2023-03-19T08:43:32.938Z,8.20
2023-03-19T08:46:00.956Z,6.97
2023-03-19T08:48:27.779Z,6.37
2023-03-19T08:51:00.972Z,6.53
2023-03-19T08:53:28.214Z,5.60
2023-03-19T08:55:57.024Z,4.23
2023-03-19T08:58:25.017Z,4.17
2023-03-19T09:00:52.257Z,4.27
2023-03-19T09:03:20.374Z,4.50
2023-03-19T09:05:47.395Z,3.67
2023-03-19T09:08:14.356Z,3.93
2023-03-19T09:10:41.037Z,4.10
2023-03-19T09:13:07.796Z,3.93
2023-03-19T09:15:34.992Z,3.40
2023-03-19T09:18:01.956Z,4.10
2023-03-19T09:20:28.724Z,3.53
2023-03-19T09:22:55.709Z,3.40
2023-03-19T09:25:22.492Z,2.70
2023-03-19T09:27:49.195Z,3.20
2023-03-19T09:30:16.360Z,3.17
2023-03-19T09:32:43.151Z,3.20
2023-03-19T09:35:10.377Z,2.97
2023-03-19T09:37:37.345Z,3.17
2023-03-19T09:40:05.293Z,3.40
2023-03-19T09:42:53.387Z,3.10
2023-03-19T09:45:20.555Z,2.93
2023-03-19T09:47:52.187Z,2.80
2023-03-19T09:50:23.035Z,3.10
2023-03-19T09:53:10.344Z,3.40
2023-03-19T09:55:49.618Z,3.30
2023-03-19T09:58:27.133Z,4.07
2023-03-19T10:00:55.392Z,3.80
2023-03-19T10:03:32.019Z,3.10
2023-03-19T10:06:33.855Z,3.30
2023-03-19T10:09:20.499Z,3.33
2023-03-19T10:12:06.180Z,2.70
2023-03-19T10:14:55.776Z,2.83
2023-03-19T10:17:33.244Z,2.60
2023-03-19T10:20:23.532Z,3.07
2023-03-19T10:23:21.729Z,3.67
2023-03-19T10:25:51.749Z,3.13
2023-03-19T10:28:21.944Z,3.80
2023-03-19T10:31:13.767Z,3.07
2023-03-19T10:34:22.278Z,2.87
2023-03-19T10:36:49.009Z,3.40
2023-03-19T10:39:19.106Z,3.00
2023-03-19T10:42:27.983Z,3.57
2023-03-19T10:45:04.973Z,2.80
2023-03-19T10:47:38.965Z,2.60
2023-03-19T10:50:06.184Z,2.50
2023-03-19T10:52:35.185Z,2.80
2023-03-19T10:55:26.141Z,2.80
2023-03-19T10:58:03.313Z,2.67
2023-03-19T11:00:33.420Z,3.60
2023-03-19T11:03:04.899Z,2.47
2023-03-19T11:05:34.875Z,2.30
2023-03-19T11:08:22.675Z,2.70
2023-03-19T11:10:55.946Z,2.10
2023-03-19T11:13:25.670Z,2.13
2023-03-19T11:15:54.665Z,2.03
2023-03-19T11:18:24.105Z,2.10
2023-03-19T11:21:05.746Z,2.37
2023-03-19T11:23:41.115Z,2.53
2023-03-19T11:26:08.172Z,2.30
2023-03-19T11:28:37.482Z,2.40
2023-03-19T11:31:30.283Z,2.27
2023-03-19T11:34:02.861Z,2.30
2023-03-19T11:36:49.775Z,2.30
2023-03-19T11:39:19.733Z,2.57
2023-03-19T11:42:01.502Z,2.27
2023-03-19T11:45:09.093Z,2.50
2023-03-19T11:48:03.033Z,2.30
2023-03-19T11:50:51.960Z,2.30
2023-03-19T11:53:51.726Z,2.30
2023-03-19T11:56:26.022Z,2.37
2023-03-19T11:59:08.816Z,2.40
2023-03-19T12:02:00.334Z,2.37
2023-03-19T12:04:56.153Z,2.30
2023-03-19T12:07:56.714Z,2.00
2023-03-19T12:10:26.413Z,2.20
2023-03-19T12:13:19.590Z,2.10
2023-03-19T12:16:01.076Z,2.20
2023-03-19T12:18:52.107Z,1.90
2023-03-19T12:21:43.574Z,2.00
2023-03-19T12:24:34.347Z,1.90
2023-03-19T12:27:07.083Z,2.00
2023-03-19T12:29:52.311Z,1.50
2023-03-19T12:32:46.664Z,1.90
2023-03-19T12:35:20.964Z,2.00
2023-03-19T12:38:04.537Z,1.80
2023-03-19T12:40:43.282Z,1.70
2023-03-19T12:43:33.338Z,1.90
2023-03-19T12:46:12.412Z,1.83
2023-03-19T12:49:15.649Z,2.17
2023-03-19T12:51:53.895Z,1.67
2023-03-19T12:54:27.654Z,1.80
2023-03-19T12:57:07.118Z,1.70
2023-03-19T12:59:39.992Z,1.50
2023-03-19T13:02:45.536Z,1.87
2023-03-19T13:05:15.487Z,1.80
2023-03-19T13:07:57.002Z,1.80
2023-03-19T13:10:24.534Z,1.60
2023-03-19T13:12:52.997Z,1.60
2023-03-19T13:15:43.557Z,1.83
2023-03-19T13:18:40.873Z,1.70
2023-03-19T13:21:34.060Z,1.70
2023-03-19T13:24:23.795Z,1.87
2023-03-19T13:26:53.018Z,2.07
2023-03-19T13:29:31.017Z,3.37
2023-03-19T13:32:10.981Z,2.80
2023-03-19T13:34:38.742Z,3.17
2023-03-19T13:37:14.494Z,2.00
2023-03-19T13:39:42.968Z,1.70
2023-03-19T13:42:30.177Z,1.80
2023-03-19T13:45:35.319Z,1.87
2023-03-19T13:48:25.023Z,1.90
2023-03-19T13:51:18.238Z,2.00
2023-03-19T13:54:13.441Z,1.50
2023-03-19T13:57:01.064Z,1.67
2023-03-19T13:59:32.342Z,1.60
2023-03-19T14:02:00.539Z,1.77
2023-03-19T14:04:35.552Z,1.50
2023-03-19T14:07:22.280Z,1.60
2023-03-19T14:09:51.817Z,1.40
2023-03-19T14:12:18.448Z,1.90
2023-03-19T14:14:53.522Z,1.57
2023-03-19T14:17:25.255Z,2.20
2023-03-19T14:19:54.298Z,1.80
2023-03-19T14:22:35.005Z,1.80
2023-03-19T14:25:18.939Z,1.73
2023-03-19T14:27:51.187Z,2.00
2023-03-19T14:30:24.735Z,1.50
2023-03-19T14:32:52.739Z,1.40
2023-03-19T14:35:21.339Z,1.40
2023-03-19T14:37:50.866Z,1.47
2023-03-19T14:40:24.268Z,1.33
2023-03-19T14:43:05.485Z,1.10
2023-03-19T14:45:41.747Z,1.50
2023-03-19T14:48:18.169Z,1.53
2023-03-19T14:50:54.139Z,1.30
2023-03-19T14:53:44.048Z,1.70
2023-03-19T14:56:21.637Z,1.60
2023-03-19T14:58:50.415Z,1.50
2023-03-19T15:01:18.624Z,1.80
2023-03-19T15:03:46.295Z,1.50
2023-03-19T15:06:15.481Z,1.50
2023-03-19T15:08:42.942Z,1.57
2023-03-19T15:11:42.234Z,1.60
2023-03-19T15:14:23.470Z,1.43
2023-03-19T15:17:01.991Z,1.40
2023-03-19T15:19:32.114Z,1.60
2023-03-19T15:22:17.008Z,1.50
2023-03-19T15:24:43.804Z,1.77
2023-03-19T15:27:25.499Z,1.63
2023-03-19T15:29:53.809Z,2.00
2023-03-19T15:32:52.243Z,1.80
2023-03-19T15:35:26.802Z,1.67
2023-03-19T15:38:00.601Z,1.33
2023-03-19T15:40:31.231Z,1.40
2023-03-19T15:43:01.709Z,1.40
2023-03-19T15:45:31.406Z,1.33
2023-03-19T15:48:09.678Z,1.50
2023-03-19T15:50:38.286Z,1.47
2023-03-19T15:53:11.244Z,1.53
2023-03-19T15:55:38.793Z,1.40
2023-03-19T15:58:12.150Z,1.77
2023-03-19T16:00:41.489Z,1.53
2023-03-19T16:03:20.189Z,1.60
2023-03-19T16:05:58.777Z,1.73
2023-03-19T16:08:26.875Z,1.90
2023-03-19T16:10:54.202Z,1.70
2023-03-19T16:13:28.994Z,1.90
2023-03-19T16:16:12.322Z,3.03
2023-03-19T16:18:53.435Z,3.30
2023-03-19T16:21:27.415Z,3.77
2023-03-19T16:24:08.296Z,3.00
2023-03-19T16:26:43.535Z,2.30
2023-03-19T16:29:29.000Z,2.47
2023-03-19T16:32:08.595Z,3.90
2023-03-19T16:34:55.782Z,2.70
2023-03-19T16:37:40.044Z,2.97
2023-03-19T16:40:12.935Z,3.10
2023-03-19T16:42:51.189Z,2.80
2023-03-19T16:45:30.526Z,4.10
2023-03-19T16:47:59.767Z,3.93
2023-03-19T16:50:29.786Z,3.87
2023-03-19T16:52:58.574Z,3.50
2023-03-19T16:55:28.745Z,3.53
2023-03-19T16:58:14.923Z,6.03
2023-03-19T17:00:43.744Z,12.40
2023-03-19T17:03:18.502Z,6.37
2023-03-19T17:05:46.707Z,4.07
2023-03-19T17:08:13.861Z,3.63
2023-03-19T17:10:46.168Z,4.50
2023-03-19T17:13:30.226Z,8.40
2023-03-19T17:16:01.189Z,14.60
2023-03-19T17:18:35.139Z,11.20
2023-03-19T17:21:25.351Z,7.10
2023-03-19T17:23:52.299Z,4.37
2023-03-19T17:26:22.707Z,4.50
2023-03-19T17:28:49.951Z,3.47
2023-03-19T17:31:31.862Z,11.37
2023-03-19T17:34:14.497Z,5.43
2023-03-19T17:36:51.646Z,5.60
2023-03-19T17:39:19.102Z,5.27
2023-03-19T17:41:46.086Z,7.73
2023-03-19T17:44:14.740Z,4.10
2023-03-19T17:46:47.324Z,3.80
2023-03-19T17:49:23.169Z,6.17
2023-03-19T17:51:50.549Z,14.00
2023-03-19T17:54:17.832Z,19.30
2023-03-19T17:56:44.825Z,30.90
2023-03-19T17:59:12.230Z,17.13
2023-03-19T18:01:43.207Z,20.17
2023-03-19T18:04:14.440Z,74.07
2023-03-19T18:06:44.130Z,31.57
2023-03-19T18:09:22.609Z,24.27
2023-03-19T18:11:49.948Z,19.13
2023-03-19T18:14:16.919Z,19.40
2023-03-19T18:16:44.041Z,10.67
2023-03-19T18:19:30.697Z,9.10
2023-03-19T18:21:57.547Z,9.47
2023-03-19T18:24:24.529Z,9.60
2023-03-19T18:26:51.546Z,9.13
2023-03-19T18:29:18.362Z,8.87
2023-03-19T18:31:48.417Z,9.60
2023-03-19T18:34:16.707Z,11.40
2023-03-19T18:36:43.533Z,8.50
2023-03-19T18:39:14.873Z,7.97
2023-03-19T18:41:42.832Z,8.13
2023-03-19T18:44:09.912Z,9.37
2023-03-19T18:46:38.879Z,8.73
2023-03-19T18:49:18.292Z,8.07
2023-03-19T18:51:59.038Z,7.10
2023-03-19T18:54:28.136Z,6.40
2023-03-19T18:56:56.403Z,6.53
2023-03-19T18:59:32.839Z,6.40
2023-03-19T19:02:03.339Z,6.33
2023-03-19T19:04:31.225Z,6.07
2023-03-19T19:06:58.259Z,7.93
2023-03-19T19:09:25.028Z,9.17
2023-03-19T19:11:54.372Z,10.77
2023-03-19T19:14:24.145Z,10.33
2023-03-19T19:16:53.122Z,9.97
2023-03-19T19:19:27.602Z,8.73
2023-03-19T19:21:54.974Z,8.17
2023-03-19T19:24:21.706Z,7.77
2023-03-19T19:26:53.846Z,7.30
2023-03-19T19:29:26.713Z,8.20
2023-03-19T19:31:54.753Z,7.60
2023-03-19T19:34:22.824Z,8.40
2023-03-19T19:36:50.953Z,7.13
2023-03-19T19:39:18.554Z,7.83
2023-03-19T19:41:46.721Z,9.40
2023-03-19T19:44:22.469Z,9.90
2023-03-19T19:46:53.207Z,11.37
2023-03-19T19:49:21.535Z,9.03
2023-03-19T19:51:48.263Z,12.83
2023-03-19T19:54:15.305Z,10.47
2023-03-19T19:56:42.145Z,8.97
2023-03-19T19:59:14.541Z,11.80
2023-03-19T20:01:41.273Z,9.50
2023-03-19T20:04:29.956Z,8.53
2023-03-19T20:06:57.262Z,5.33
2023-03-19T20:09:24.116Z,5.10
2023-03-19T20:11:51.699Z,4.60
2023-03-19T20:14:18.446Z,4.40
2023-03-19T20:16:45.588Z,4.97
2023-03-19T20:19:18.935Z,5.60
2023-03-19T20:21:46.324Z,4.77
2023-03-19T20:24:13.350Z,5.83
2023-03-19T20:26:40.496Z,6.77
2023-03-19T20:29:07.775Z,6.53
2023-03-19T20:31:36.443Z,6.07
2023-03-19T20:34:03.373Z,5.47
2023-03-19T20:36:30.190Z,5.97
2023-03-19T20:38:57.061Z,4.57
2023-03-19T20:41:27.213Z,3.93
2023-03-19T20:43:55.135Z,3.40
2023-03-19T20:46:23.387Z,3.83
2023-03-19T20:48:50.651Z,3.27
2023-03-19T20:51:24.913Z,3.43
2023-03-19T20:53:52.762Z,2.93
2023-03-19T20:56:22.527Z,3.80
2023-03-19T20:58:49.683Z,3.50
2023-03-19T21:01:17.922Z,3.57
2023-03-19T21:03:44.728Z,3.30
2023-03-19T21:06:23.693Z,3.50
2023-03-19T21:08:58.678Z,2.97
2023-03-19T21:11:40.496Z,2.87
2023-03-19T21:14:13.882Z,3.30
2023-03-19T21:16:40.652Z,3.27
2023-03-19T21:19:07.398Z,3.13
2023-03-19T21:21:37.320Z,3.30
2023-03-19T21:24:05.919Z,3.43
2023-03-19T21:26:37.257Z,3.50
2023-03-19T21:29:08.137Z,5.37
2023-03-19T21:31:34.905Z,5.63
2023-03-19T21:34:01.973Z,4.97
2023-03-19T21:36:29.061Z,5.30
2023-03-19T21:38:56.613Z,4.33
2023-03-19T21:41:24.987Z,5.23
2023-03-19T21:43:58.009Z,5.70
2023-03-19T21:46:29.596Z,4.20
2023-03-19T21:48:57.785Z,3.50
2023-03-19T21:51:26.656Z,4.93
2023-03-19T21:53:53.675Z,3.40
2023-03-19T21:56:32.328Z,4.00
2023-03-19T21:59:02.438Z,3.97
2023-03-19T22:01:29.168Z,3.60
2023-03-19T22:03:57.436Z,3.00
2023-03-19T22:06:25.579Z,3.90
2023-03-19T22:08:54.147Z,4.50
2023-03-19T22:11:36.570Z,4.90
2023-03-19T22:14:31.393Z,4.47
2023-03-19T22:16:58.464Z,3.77
2023-03-19T22:19:26.226Z,4.17
2023-03-19T22:21:53.439Z,4.47
2023-03-19T22:24:20.683Z,4.07
2023-03-19T22:26:51.054Z,3.47
2023-03-19T22:29:22.122Z,4.00
2023-03-19T22:31:50.411Z,3.77
2023-03-19T22:34:19.022Z,5.07
2023-03-19T22:36:46.302Z,6.27
2023-03-19T22:39:13.738Z,6.03
2023-03-19T22:41:45.959Z,5.17
2023-03-19T22:44:29.003Z,4.43
2023-03-19T22:46:57.600Z,4.13
2023-03-19T22:49:24.899Z,3.50
2023-03-19T22:51:51.882Z,3.57
2023-03-19T22:54:18.921Z,3.03
2023-03-19T22:56:45.976Z,3.50
2023-03-19T22:59:12.763Z,4.10
2023-03-19T23:01:46.746Z,3.47
2023-03-19T23:04:29.300Z,3.33
2023-03-19T23:06:57.388Z,3.60
2023-03-19T23:09:30.614Z,3.87
2023-03-19T23:11:59.544Z,3.87
2023-03-19T23:14:30.858Z,3.77
2023-03-19T23:17:04.019Z,3.53
2023-03-19T23:19:40.091Z,3.77
2023-03-19T23:22:11.372Z,3.40
2023-03-19T23:24:39.039Z,3.40
2023-03-19T23:27:05.956Z,3.17
2023-03-19T23:29:36.647Z,2.57
2023-03-19T23:32:04.670Z,2.83
2023-03-19T23:34:35.299Z,2.97
2023-03-19T23:37:04.136Z,2.87
2023-03-19T23:39:30.837Z,2.90
2023-03-19T23:42:16.587Z,2.70
2023-03-19T23:44:43.771Z,2.70
2023-03-19T23:47:11.138Z,2.90
2023-03-19T23:49:37.928Z,2.83
2023-03-19T23:52:05.380Z,2.77
2023-03-19T23:54:33.984Z,2.77
2023-03-19T23:57:05.328Z,2.67
2023-03-19T23:59:37.117Z,2.80
